Time;durP1;ratioP1;P1;durP2;ratioP2;P2;SDS_P1;SDS_P2;PMS_P1;PMS_P2;Temp;Humidity;BMP_temperature;BMP_pressure;BME280_temperature;BME280_humidity;BME280_pressure;Samples;Min_cycle;Max_cycle;Signal;HPM_P1;HPM_P2
2022/07/04 00:02:09;;;;;;;1.60;1.40;;;;;;;;;;5099004;28;20203;-60
2022/07/04 00:04:36;;;;;;;1.40;1.23;;;;;;;;;;5098242;28;20622;-59
2022/07/04 00:07:04;;;;;;;1.40;1.30;;;;;;;;;;5099165;28;20487;-59
2022/07/04 00:09:32;;;;;;;1.08;1.00;;;;;;;;;;5098594;28;20592;-60
2022/07/04 00:11:59;;;;;;;1.38;1.20;;;;;;;;;;5098030;28;20574;-59
2022/07/04 00:14:27;;;;;;;1.40;1.27;;;;;;;;;;5098800;28;20227;-59
2022/07/04 00:16:56;;;;;;;1.85;1.65;;;;;;;;;;5098471;28;20247;-59
2022/07/04 00:19:23;;;;;;;1.20;1.10;;;;;;;;;;5097873;28;20268;-59
2022/07/04 00:21:51;;;;;;;1.20;1.10;;;;;;;;;;5098036;28;20235;-60
2022/07/04 00:24:18;;;;;;;1.13;1.13;;;;;;;;;;5098113;28;20497;-59
2022/07/04 00:26:46;;;;;;;1.27;1.17;;;;;;;;;;5098205;28;20237;-59
2022/07/04 00:29:13;;;;;;;2.15;1.35;;;;;;;;;;5098665;28;20247;-59
2022/07/04 00:31:41;;;;;;;1.30;1.20;;;;;;;;;;5098162;28;20241;-59
2022/07/04 00:34:11;;;;;;;1.10;1.10;;;;;;;;;;5097195;28;20339;-59
2022/07/04 00:36:38;;;;;;;1.00;1.00;;;;;;;;;;5097622;28;20226;-59
2022/07/04 00:39:06;;;;;;;1.40;1.30;;;;;;;;;;5098302;28;20207;-59
2022/07/04 00:41:33;;;;;;;1.38;1.27;;;;;;;;;;5097904;28;20211;-58
2022/07/04 00:44:01;;;;;;;1.40;1.30;;;;;;;;;;5098009;28;20249;-59
2022/07/04 00:46:29;;;;;;;1.30;1.20;;;;;;;;;;5097753;28;20203;-59
2022/07/04 00:48:56;;;;;;;1.40;1.30;;;;;;;;;;5098295;28;20211;-59
2022/07/04 00:51:25;;;;;;;1.10;1.10;;;;;;;;;;5097950;28;20227;-59
2022/07/04 00:53:54;;;;;;;1.10;1.10;;;;;;;;;;5097708;28;20273;-59
2022/07/04 00:56:21;;;;;;;1.60;1.20;;;;;;;;;;5098034;28;20268;-59
2022/07/04 00:58:50;;;;;;;1.10;1.10;;;;;;;;;;5097752;28;20222;-59
2022/07/04 01:01:17;;;;;;;1.25;1.20;;;;;;;;;;5097253;28;20204;-60
2022/07/04 01:03:45;;;;;;;1.27;1.20;;;;;;;;;;5097382;28;20210;-59
2022/07/04 01:06:13;;;;;;;1.38;1.20;;;;;;;;;;5097311;28;20203;-59
2022/07/04 01:08:42;;;;;;;1.40;1.20;;;;;;;;;;5097775;28;20329;-59
2022/07/04 01:11:10;;;;;;;1.55;1.30;;;;;;;;;;5097534;28;20204;-59
2022/07/04 01:13:38;;;;;;;1.48;1.38;;;;;;;;;;5097223;28;20224;-59
2022/07/04 01:16:06;;;;;;;1.20;1.15;;;;;;;;;;5097777;28;20211;-59
2022/07/04 01:18:34;;;;;;;1.55;1.20;;;;;;;;;;5097325;28;20264;-59
2022/07/04 01:21:03;;;;;;;1.40;1.30;;;;;;;;;;5097373;28;20219;-59
2022/07/04 01:23:30;;;;;;;1.45;1.10;;;;;;;;;;5097558;28;20203;-59
2022/07/04 01:25:59;;;;;;;1.30;1.20;;;;;;;;;;5096992;28;20204;-59
2022/07/04 01:28:27;;;;;;;1.40;1.30;;;;;;;;;;5097549;28;20246;-59
2022/07/04 01:30:54;;;;;;;1.20;1.20;;;;;;;;;;5097212;28;20251;-59
2022/07/04 01:33:22;;;;;;;1.20;1.20;;;;;;;;;;5097485;28;20583;-60
2022/07/04 01:35:49;;;;;;;1.38;1.27;;;;;;;;;;5098123;28;20586;-59
2022/07/04 01:38:18;;;;;;;1.48;1.38;;;;;;;;;;5097718;28;20218;-59
2022/07/04 01:40:46;;;;;;;1.33;1.23;;;;;;;;;;5097626;28;20497;-59
2022/07/04 01:43:14;;;;;;;2.55;1.52;;;;;;;;;;5097216;28;20206;-59
2022/07/04 01:45:41;;;;;;;1.60;1.50;;;;;;;;;;5098333;28;20242;-60
2022/07/04 01:48:09;;;;;;;1.10;1.10;;;;;;;;;;5097399;28;20213;-60
2022/07/04 01:50:38;;;;;;;1.80;1.13;;;;;;;;;;5097806;28;20511;-59
2022/07/04 01:53:06;;;;;;;1.50;1.33;;;;;;;;;;5096814;28;20243;-59
2022/07/04 01:55:35;;;;;;;1.42;1.33;;;;;;;;;;5097120;28;20231;-60
2022/07/04 01:58:02;;;;;;;1.17;1.17;;;;;;;;;;5096510;28;20290;-59
2022/07/04 02:03:15;;;;;;;1.38;1.27;;;;;;;;;;5097092;28;20198;-59
2022/07/04 02:05:44;;;;;;;1.30;1.20;;;;;;;;;;5097125;28;20229;-59
2022/07/04 02:08:11;;;;;;;1.20;1.10;;;;;;;;;;5097164;28;20238;-59
2022/07/04 02:10:40;;;;;;;1.10;1.10;;;;;;;;;;5097598;28;20545;-60
2022/07/04 02:13:06;;;;;;;1.65;1.40;;;;;;;;;;5097712;28;20243;-60
2022/07/04 02:15:36;;;;;;;1.40;1.30;;;;;;;;;;5097102;28;20238;-59
2022/07/04 02:18:03;;;;;;;1.55;1.45;;;;;;;;;;5096947;28;20203;-60
2022/07/04 02:20:31;;;;;;;1.50;1.40;;;;;;;;;;5097016;28;20243;-60
2022/07/04 02:22:59;;;;;;;1.40;1.30;;;;;;;;;;5100239;28;20207;-59
2022/07/04 02:25:26;;;;;;;1.40;1.30;;;;;;;;;;5100764;28;20618;-60
2022/07/04 02:27:55;;;;;;;1.52;1.30;;;;;;;;;;5100589;28;20325;-59
2022/07/04 02:30:23;;;;;;;1.38;1.20;;;;;;;;;;5099508;28;20260;-59
2022/07/04 02:32:51;;;;;;;1.40;1.30;;;;;;;;;;5100282;28;20204;-59
2022/07/04 02:35:18;;;;;;;1.48;1.38;;;;;;;;;;5100598;28;20645;-60
2022/07/04 02:37:45;;;;;;;1.40;1.30;;;;;;;;;;5100574;28;20294;-59
2022/07/04 02:40:13;;;;;;;1.80;1.40;;;;;;;;;;5100778;28;20253;-60
2022/07/04 02:42:40;;;;;;;1.35;1.25;;;;;;;;;;5100223;28;20204;-60
2022/07/04 02:45:10;;;;;;;1.92;1.48;;;;;;;;;;5100686;28;20243;-59
2022/07/04 02:47:38;;;;;;;1.50;1.40;;;;;;;;;;5100587;28;20235;-59
2022/07/04 02:50:05;;;;;;;1.83;1.67;;;;;;;;;;5100346;28;20203;-60
2022/07/04 02:52:33;;;;;;;2.40;1.52;;;;;;;;;;5099330;28;20308;-61
2022/07/04 02:55:01;;;;;;;1.63;1.20;;;;;;;;;;5100405;28;20255;-60
2022/07/04 02:57:29;;;;;;;2.15;1.60;;;;;;;;;;5100115;28;20211;-60
2022/07/04 02:59:56;;;;;;;2.00;1.48;;;;;;;;;;5100180;28;20239;-60
2022/07/04 03:02:25;;;;;;;1.40;1.30;;;;;;;;;;5099641;28;20234;-59
2022/07/04 03:04:52;;;;;;;1.48;1.38;;;;;;;;;;5099578;28;20207;-60
2022/07/04 03:07:20;;;;;;;1.70;1.25;;;;;;;;;;5099692;28;20734;-59
2022/07/04 03:09:48;;;;;;;1.60;1.50;;;;;;;;;;5099679;28;20284;-60
2022/07/04 03:12:15;;;;;;;1.73;1.63;;;;;;;;;;5099483;28;20258;-59
2022/07/04 03:14:43;;;;;;;1.60;1.50;;;;;;;;;;5099289;28;20263;-59
2022/07/04 03:17:10;;;;;;;1.40;1.30;;;;;;;;;;5098910;28;20238;-60
2022/07/04 03:19:39;;;;;;;1.52;1.42;;;;;;;;;;5099992;28;20235;-61
2022/07/04 03:22:07;;;;;;;1.60;1.50;;;;;;;;;;5099023;28;20268;-59
2022/07/04 03:24:34;;;;;;;1.85;1.30;;;;;;;;;;5098579;28;20589;-59
2022/07/04 03:27:01;;;;;;;1.70;1.60;;;;;;;;;;5099543;28;20269;-60
2022/07/04 03:29:29;;;;;;;1.83;1.70;;;;;;;;;;5099631;28;20233;-60
2022/07/04 03:31:56;;;;;;;1.85;1.75;;;;;;;;;;5098873;28;20307;-60
2022/07/04 03:34:24;;;;;;;3.08;1.70;;;;;;;;;;5099705;28;20318;-60
2022/07/04 03:36:53;;;;;;;1.70;1.60;;;;;;;;;;5098655;28;20556;-59
2022/07/04 03:39:21;;;;;;;1.67;1.58;;;;;;;;;;5098336;28;20548;-60
2022/07/04 03:41:49;;;;;;;1.40;1.30;;;;;;;;;;5099140;28;20207;-60
2022/07/04 03:44:16;;;;;;;2.70;1.80;;;;;;;;;;5098877;28;20208;-60
2022/07/04 03:46:44;;;;;;;1.70;1.60;;;;;;;;;;5098523;28;20598;-60
2022/07/04 03:49:11;;;;;;;1.60;1.50;;;;;;;;;;5098825;28;20683;-59
2022/07/04 03:51:39;;;;;;;2.13;1.70;;;;;;;;;;5098411;28;20224;-60
2022/07/04 03:54:08;;;;;;;1.60;1.50;;;;;;;;;;5098050;28;20477;-59
2022/07/04 03:56:35;;;;;;;1.67;1.58;;;;;;;;;;5098296;28;20241;-60
2022/07/04 03:59:03;;;;;;;1.83;1.60;;;;;;;;;;5098306;28;20242;-60
2022/07/04 04:01:31;;;;;;;1.77;1.67;;;;;;;;;;5096599;28;20256;-60
2022/07/04 04:06:43;;;;;;;1.70;1.60;;;;;;;;;;5097972;28;20195;-59
2022/07/04 04:09:16;;;;;;;1.77;1.67;;;;;;;;;;5099110;28;20331;-60
2022/07/04 04:11:43;;;;;;;1.85;1.75;;;;;;;;;;5098587;28;20211;-60
2022/07/04 04:14:11;;;;;;;2.05;1.70;;;;;;;;;;5098422;28;20306;-60
2022/07/04 04:16:39;;;;;;;1.60;1.50;;;;;;;;;;5097887;28;20226;-60
2022/07/04 04:19:06;;;;;;;1.70;1.60;;;;;;;;;;5097455;28;20542;-60
2022/07/04 04:21:34;;;;;;;1.70;1.60;;;;;;;;;;5097466;28;20212;-60
2022/07/04 04:24:01;;;;;;;1.75;1.50;;;;;;;;;;5096915;28;20290;-60
2022/07/04 04:26:32;;;;;;;1.67;1.58;;;;;;;;;;5096901;28;20463;-60
2022/07/04 04:29:00;;;;;;;1.70;1.60;;;;;;;;;;5097373;28;20246;-60
2022/07/04 04:31:27;;;;;;;2.00;1.80;;;;;;;;;;5097442;28;20243;-60
2022/07/04 04:33:55;;;;;;;1.67;1.58;;;;;;;;;;5097023;28;20235;-60
2022/07/04 04:36:22;;;;;;;1.70;1.60;;;;;;;;;;5096342;28;20273;-60
2022/07/04 04:38:50;;;;;;;1.70;1.60;;;;;;;;;;5096831;28;20241;-59
2022/07/04 04:41:17;;;;;;;1.70;1.60;;;;;;;;;;5096487;28;20325;-59
2022/07/04 04:43:46;;;;;;;1.70;1.60;;;;;;;;;;5096268;28;20575;-60
2022/07/04 04:46:14;;;;;;;2.00;1.90;;;;;;;;;;5095870;28;20243;-59
2022/07/04 04:48:41;;;;;;;1.95;1.70;;;;;;;;;;5096027;28;20203;-60
2022/07/04 04:51:09;;;;;;;1.77;1.67;;;;;;;;;;5094438;28;20606;-59
2022/07/04 04:53:36;;;;;;;1.90;1.80;;;;;;;;;;5094749;28;20583;-60
2022/07/04 04:56:04;;;;;;;1.88;1.77;;;;;;;;;;5093723;28;20226;-59
2022/07/04 04:58:31;;;;;;;2.33;1.95;;;;;;;;;;5095352;28;20302;-59
2022/07/04 05:01:02;;;;;;;1.83;1.73;;;;;;;;;;5095240;28;20256;-61
2022/07/04 05:03:29;;;;;;;2.00;1.90;;;;;;;;;;5094232;28;20208;-59
2022/07/04 05:05:57;;;;;;;1.98;1.88;;;;;;;;;;5095315;28;20590;-59
2022/07/04 05:08:25;;;;;;;1.90;1.80;;;;;;;;;;5093509;28;20222;-59
2022/07/04 05:10:53;;;;;;;1.95;1.85;;;;;;;;;;5095110;28;20214;-59
2022/07/04 05:13:21;;;;;;;2.10;1.90;;;;;;;;;;5095673;28;20235;-60
2022/07/04 05:15:49;;;;;;;2.05;1.83;;;;;;;;;;5093724;28;20231;-59
2022/07/04 05:18:18;;;;;;;2.00;1.90;;;;;;;;;;5094383;28;20264;-59
2022/07/04 05:20:46;;;;;;;2.08;1.98;;;;;;;;;;5094266;28;20211;-59
2022/07/04 05:23:14;;;;;;;1.90;1.80;;;;;;;;;;5093717;28;20219;-59
2022/07/04 05:25:41;;;;;;;2.85;2.00;;;;;;;;;;5094725;28;20265;-59
2022/07/04 05:28:09;;;;;;;2.25;2.15;;;;;;;;;;5094523;28;20274;-59
2022/07/04 05:30:36;;;;;;;2.20;2.10;;;;;;;;;;5095089;28;20665;-59
2022/07/04 05:33:04;;;;;;;2.15;2.05;;;;;;;;;;5093598;28;20473;-59
2022/07/04 05:35:35;;;;;;;2.20;2.00;;;;;;;;;;5094249;28;20231;-59
2022/07/04 05:38:03;;;;;;;1.90;1.80;;;;;;;;;;5094902;28;20694;-59
2022/07/04 05:40:31;;;;;;;1.80;1.70;;;;;;;;;;5094087;28;20231;-59
2022/07/04 05:42:58;;;;;;;1.88;1.77;;;;;;;;;;5094785;28;20246;-59
2022/07/04 05:45:26;;;;;;;1.95;1.85;;;;;;;;;;5094772;28;20586;-59
2022/07/04 05:47:53;;;;;;;1.90;1.80;;;;;;;;;;5094722;28;20298;-59
2022/07/04 05:50:21;;;;;;;1.90;1.70;;;;;;;;;;5095550;28;20212;-59
2022/07/04 05:52:50;;;;;;;1.80;1.70;;;;;;;;;;5095309;28;20274;-60
2022/07/04 05:55:17;;;;;;;1.92;1.77;;;;;;;;;;5095369;28;20262;-59
2022/07/04 05:57:45;;;;;;;1.85;1.75;;;;;;;;;;5099260;28;20208;-60
2022/07/04 06:00:13;;;;;;;1.90;1.80;;;;;;;;;;5098991;28;20258;-60
2022/07/04 06:02:43;;;;;;;1.77;1.67;;;;;;;;;;5099198;28;20678;-60
2022/07/04 06:05:10;;;;;;;1.70;1.60;;;;;;;;;;5099570;28;20233;-61
2022/07/04 06:07:38;;;;;;;1.70;1.60;;;;;;;;;;5099425;28;20235;-60
2022/07/04 06:10:08;;;;;;;1.70;1.60;;;;;;;;;;5099333;28;20204;-60
2022/07/04 06:12:36;;;;;;;1.60;1.50;;;;;;;;;;5098875;28;20272;-60
2022/07/04 06:15:05;;;;;;;1.80;1.70;;;;;;;;;;5099153;28;20200;-60
2022/07/04 06:17:32;;;;;;;1.55;1.45;;;;;;;;;;5098706;28;20553;-59
2022/07/04 06:20:00;;;;;;;1.65;1.55;;;;;;;;;;5099400;28;20580;-60
2022/07/04 06:22:27;;;;;;;1.60;1.50;;;;;;;;;;5099086;28;20544;-60
2022/07/04 06:24:55;;;;;;;1.65;1.55;;;;;;;;;;5096825;28;20682;-60
2022/07/04 06:27:24;;;;;;;1.50;1.40;;;;;;;;;;5098675;28;20239;-60
2022/07/04 06:29:52;;;;;;;1.55;1.45;;;;;;;;;;5098205;28;20215;-60
2022/07/04 06:32:20;;;;;;;1.65;1.55;;;;;;;;;;5098603;28;20292;-60
2022/07/04 06:37:32;;;;;;;1.65;1.25;;;;;;;;;;5098318;28;20610;-60
2022/07/04 06:40:00;;;;;;;1.60;1.50;;;;;;;;;;5097587;28;20261;-60
2022/07/04 06:42:28;;;;;;;1.60;1.50;;;;;;;;;;5098272;28;20619;-60
2022/07/04 06:44:56;;;;;;;1.60;1.50;;;;;;;;;;5098554;28;20310;-60
2022/07/04 06:47:24;;;;;;;2.00;1.40;;;;;;;;;;5097791;28;20233;-60
2022/07/04 06:49:51;;;;;;;1.50;1.40;;;;;;;;;;5098580;28;20207;-60
2022/07/04 06:52:19;;;;;;;2.13;1.50;;;;;;;;;;5097885;28;20238;-60
2022/07/04 06:54:48;;;;;;;1.60;1.50;;;;;;;;;;5099248;28;20238;-60
2022/07/04 06:57:15;;;;;;;1.50;1.40;;;;;;;;;;5098136;28;20691;-60
2022/07/04 06:59:44;;;;;;;1.55;1.45;;;;;;;;;;5097589;28;20199;-60
2022/07/04 07:02:12;;;;;;;1.90;1.40;;;;;;;;;;5097425;28;20247;-59
2022/07/04 07:04:41;;;;;;;1.65;1.27;;;;;;;;;;5096680;28;20235;-60
2022/07/04 07:07:08;;;;;;;1.40;1.30;;;;;;;;;;5096447;28;20207;-59
2022/07/04 07:09:35;;;;;;;1.60;1.50;;;;;;;;;;5097980;28;20252;-60
2022/07/04 07:12:04;;;;;;;2.17;1.20;;;;;;;;;;5097271;28;20216;-59
2022/07/04 07:14:32;;;;;;;1.60;1.50;;;;;;;;;;5097111;28;20306;-60
2022/07/04 07:17:02;;;;;;;1.50;1.40;;;;;;;;;;5097662;28;20219;-60
2022/07/04 07:19:30;;;;;;;1.55;1.30;;;;;;;;;;5097144;28;20290;-59
2022/07/04 07:21:57;;;;;;;1.42;1.33;;;;;;;;;;5097894;28;20243;-60
2022/07/04 07:24:25;;;;;;;1.30;1.20;;;;;;;;;;5097657;28;20204;-60
2022/07/04 07:26:53;;;;;;;1.42;1.33;;;;;;;;;;5097721;28;20677;-60
2022/07/04 07:29:21;;;;;;;1.20;1.20;;;;;;;;;;5096925;28;20234;-60
2022/07/04 07:31:48;;;;;;;1.40;1.30;;;;;;;;;;5097374;28;20239;-60
2022/07/04 07:34:17;;;;;;;1.92;1.30;;;;;;;;;;5097755;28;20268;-60
2022/07/04 07:36:45;;;;;;;1.88;1.40;;;;;;;;;;5097984;28;20880;-60
2022/07/04 07:39:12;;;;;;;1.80;1.35;;;;;;;;;;5096367;28;20218;-60
2022/07/04 07:41:41;;;;;;;1.92;1.40;;;;;;;;;;5095957;28;20200;-60
2022/07/04 07:44:10;;;;;;;2.45;1.48;;;;;;;;;;5095987;28;20207;-60
2022/07/04 07:46:38;;;;;;;4.47;1.80;;;;;;;;;;5096569;28;20202;-59
2022/07/04 07:49:06;;;;;;;3.25;1.42;;;;;;;;;;5094609;28;20303;-59
2022/07/04 07:51:35;;;;;;;2.83;1.45;;;;;;;;;;5096060;28;20330;-59
2022/07/04 07:54:03;;;;;;;1.50;1.25;;;;;;;;;;5096319;28;20238;-60
2022/07/04 07:56:31;;;;;;;1.95;1.50;;;;;;;;;;5095677;28;20224;-59
2022/07/04 07:58:59;;;;;;;1.48;1.38;;;;;;;;;;5096108;28;20208;-59
2022/07/04 08:01:26;;;;;;;1.67;1.48;;;;;;;;;;5094870;28;20235;-59
2022/07/04 08:06:40;;;;;;;2.35;1.75;;;;;;;;;;5096238;28;20598;-59
2022/07/04 08:09:08;;;;;;;1.63;1.50;;;;;;;;;;5096182;28;20223;-59
2022/07/04 08:11:36;;;;;;;2.35;1.50;;;;;;;;;;5096436;28;20200;-59
2022/07/04 08:14:06;;;;;;;1.52;1.40;;;;;;;;;;5096359;28;20711;-60
2022/07/04 08:16:34;;;;;;;1.85;1.50;;;;;;;;;;5094889;28;20223;-59
2022/07/04 08:19:01;;;;;;;2.83;1.60;;;;;;;;;;5094720;28;20219;-59
2022/07/04 08:21:29;;;;;;;1.80;1.50;;;;;;;;;;5095210;28;20544;-59
2022/07/04 08:23:58;;;;;;;1.77;1.40;;;;;;;;;;5096129;28;20207;-60
2022/07/04 08:26:25;;;;;;;1.48;1.38;;;;;;;;;;5095425;28;20204;-59
2022/07/04 08:28:55;;;;;;;2.45;1.58;;;;;;;;;;5096279;28;20261;-59
2022/07/04 08:31:22;;;;;;;2.95;1.58;;;;;;;;;;5095694;28;20187;-59
2022/07/04 08:33:50;;;;;;;1.90;1.50;;;;;;;;;;5094209;28;20265;-59
2022/07/04 08:36:17;;;;;;;2.10;1.30;;;;;;;;;;5095813;28;20265;-59
2022/07/04 08:38:46;;;;;;;1.73;1.63;;;;;;;;;;5095934;28;20268;-59
2022/07/04 08:41:17;;;;;;;1.83;1.58;;;;;;;;;;5095416;28;20203;-60
2022/07/04 08:43:44;;;;;;;1.77;1.67;;;;;;;;;;5094979;28;20195;-61
2022/07/04 08:46:12;;;;;;;1.55;1.45;;;;;;;;;;5095407;28;20601;-60
2022/07/04 08:48:39;;;;;;;1.55;1.45;;;;;;;;;;5095032;28;20243;-60
2022/07/04 08:51:11;;;;;;;2.05;1.60;;;;;;;;;;5094631;28;20207;-61
2022/07/04 08:53:40;;;;;;;2.78;1.60;;;;;;;;;;5095491;28;20294;-60
2022/07/04 08:58:58;;;;;;;2.25;1.60;;;;;;;;;;5094482;28;20194;-60
2022/07/04 09:01:25;;;;;;;2.22;1.70;;;;;;;;;;5095439;28;20195;-59
2022/07/04 09:03:53;;;;;;;2.47;1.75;;;;;;;;;;5094966;28;20196;-61
2022/07/04 09:06:21;;;;;;;2.35;1.73;;;;;;;;;;5094547;28;20200;-60
2022/07/04 09:08:49;;;;;;;2.65;1.88;;;;;;;;;;5095207;28;20332;-60
2022/07/04 09:11:17;;;;;;;1.60;1.50;;;;;;;;;;5095168;28;20200;-60
2022/07/04 09:13:48;;;;;;;1.75;1.65;;;;;;;;;;5094663;28;20227;-61
2022/07/04 09:16:17;;;;;;;1.52;1.42;;;;;;;;;;5094118;28;20223;-60
2022/07/04 09:18:45;;;;;;;1.80;1.70;;;;;;;;;;5094104;28;20243;-60
2022/07/04 09:21:12;;;;;;;1.50;1.40;;;;;;;;;;5095203;28;20200;-60
2022/07/04 09:23:41;;;;;;;1.70;1.60;;;;;;;;;;5094938;28;20621;-60
2022/07/04 09:26:10;;;;;;;1.90;1.60;;;;;;;;;;5094836;28;20457;-60
2022/07/04 09:28:38;;;;;;;1.60;1.50;;;;;;;;;;5094156;28;20243;-60
2022/07/04 09:31:15;;;;;;;1.67;1.58;;;;;;;;;;5093947;28;20239;-60
2022/07/04 09:33:49;;;;;;;1.58;1.48;;;;;;;;;;5094179;28;20207;-60
2022/07/04 09:36:17;;;;;;;1.60;1.50;;;;;;;;;;5094957;28;20284;-59
2022/07/04 09:38:44;;;;;;;1.58;1.48;;;;;;;;;;5094542;28;20230;-59
2022/07/04 09:41:29;;;;;;;2.88;1.60;;;;;;;;;;5092885;28;20264;-60
2022/07/04 09:44:04;;;;;;;2.03;1.77;;;;;;;;;;5094297;28;20203;-58
2022/07/04 09:46:32;;;;;;;2.00;1.80;;;;;;;;;;5094537;28;20203;-60
2022/07/04 09:49:01;;;;;;;3.38;1.80;;;;;;;;;;5094834;28;20230;-60
2022/07/04 09:51:39;;;;;;;3.85;1.65;;;;;;;;;;5094191;28;20223;-60
2022/07/04 09:54:18;;;;;;;3.17;1.80;;;;;;;;;;5094558;28;20230;-60
2022/07/04 09:56:47;;;;;;;1.67;1.50;;;;;;;;;;5094402;28;20610;-60
2022/07/04 09:59:14;;;;;;;2.40;2.20;;;;;;;;;;5094945;28;20598;-60
2022/07/04 10:01:42;;;;;;;1.60;1.50;;;;;;;;;;5094306;28;20227;-60
2022/07/04 10:04:13;;;;;;;1.75;1.63;;;;;;;;;;5093673;28;20192;-60
2022/07/04 10:06:41;;;;;;;2.20;1.92;;;;;;;;;;5094067;28;20200;-60
2022/07/04 10:09:10;;;;;;;2.00;1.52;;;;;;;;;;5094210;28;20652;-59
2022/07/04 10:11:38;;;;;;;4.18;1.90;;;;;;;;;;5093749;28;20303;-60
2022/07/04 10:14:06;;;;;;;1.80;1.70;;;;;;;;;;5093667;28;20204;-60
2022/07/04 10:16:34;;;;;;;2.10;1.67;;;;;;;;;;5093365;28;20230;-59
2022/07/04 10:19:02;;;;;;;1.60;1.50;;;;;;;;;;5094507;28;20300;-60
2022/07/04 10:21:31;;;;;;;2.15;1.83;;;;;;;;;;5093832;28;20235;-59
2022/07/04 10:24:00;;;;;;;2.45;1.80;;;;;;;;;;5092571;28;20213;-59
2022/07/04 10:26:29;;;;;;;2.00;1.90;;;;;;;;;;5092607;28;20211;-60
2022/07/04 10:28:57;;;;;;;1.77;1.67;;;;;;;;;;5092362;28;20196;-60
2022/07/04 10:31:26;;;;;;;1.80;1.70;;;;;;;;;;5093298;28;20505;-60
2022/07/04 10:33:54;;;;;;;1.98;1.77;;;;;;;;;;5092468;28;20231;-60
2022/07/04 10:36:23;;;;;;;1.80;1.70;;;;;;;;;;5093821;28;20514;-60
2022/07/04 10:38:52;;;;;;;1.95;1.80;;;;;;;;;;5093440;28;20579;-59
2022/07/04 10:41:21;;;;;;;1.48;1.38;;;;;;;;;;5093258;28;20207;-59
2022/07/04 10:43:56;;;;;;;2.10;1.70;;;;;;;;;;5096305;28;20211;-60
2022/07/04 10:46:25;;;;;;;1.80;1.63;;;;;;;;;;5097400;28;20205;-59
2022/07/04 10:48:54;;;;;;;1.83;1.73;;;;;;;;;;5096939;28;20242;-60
2022/07/04 10:51:33;;;;;;;1.70;1.60;;;;;;;;;;5096791;28;20231;-60
2022/07/04 10:54:04;;;;;;;1.88;1.77;;;;;;;;;;5096159;28;20199;-60
2022/07/04 10:56:36;;;;;;;1.77;1.65;;;;;;;;;;5096235;28;20203;-59
2022/07/04 10:59:08;;;;;;;1.92;1.83;;;;;;;;;;5096957;28;20618;-59
2022/07/04 11:01:35;;;;;;;2.75;2.00;;;;;;;;;;5096308;28;20231;-59
2022/07/04 11:04:03;;;;;;;2.47;1.80;;;;;;;;;;5096274;28;20662;-59
2022/07/04 11:06:52;;;;;;;1.80;1.70;;;;;;;;;;5097234;28;20200;-59
2022/07/04 11:09:21;;;;;;;2.10;2.00;;;;;;;;;;5096194;28;20202;-59
2022/07/04 11:11:50;;;;;;;2.42;1.80;;;;;;;;;;5113368;28;20351;-60
2022/07/04 11:14:34;;;;;;;1.92;1.80;;;;;;;;;;5115893;28;20259;-59
2022/07/04 11:17:02;;;;;;;1.90;1.80;;;;;;;;;;5116813;28;20226;-59
2022/07/04 11:19:29;;;;;;;2.75;1.80;;;;;;;;;;5117005;28;20234;-59
2022/07/04 11:21:57;;;;;;;2.13;1.92;;;;;;;;;;5101313;28;20587;-59
2022/07/04 11:24:27;;;;;;;1.80;1.70;;;;;;;;;;5096379;28;20200;-59
2022/07/04 11:26:54;;;;;;;1.80;1.70;;;;;;;;;;5095263;28;20246;-59
2022/07/04 11:29:22;;;;;;;1.55;1.45;;;;;;;;;;5094975;28;20196;-59
2022/07/04 11:31:51;;;;;;;2.30;2.10;;;;;;;;;;5094908;28;20200;-59
2022/07/04 11:34:18;;;;;;;2.05;1.90;;;;;;;;;;5095286;28;20210;-59
2022/07/04 11:36:46;;;;;;;1.85;1.75;;;;;;;;;;5094801;28;20768;-59
2022/07/04 11:39:18;;;;;;;1.83;1.60;;;;;;;;;;5095585;28;20246;-60
2022/07/04 11:47:20;;;;;;;2.28;1.80;;;;;;;;;;5095580;28;20378;-59
2022/07/04 11:49:52;;;;;;;1.90;1.80;;;;;;;;;;5095720;28;20238;-59
2022/07/04 11:52:21;;;;;;;2.17;1.83;;;;;;;;;;5094980;28;20238;-59
2022/07/04 11:54:49;;;;;;;1.83;1.73;;;;;;;;;;5095881;28;20268;-60
2022/07/04 11:57:19;;;;;;;1.85;1.75;;;;;;;;;;5095892;28;20255;-59
2022/07/04 11:59:54;;;;;;;1.63;1.52;;;;;;;;;;5095874;28;20211;-59
2022/07/04 12:02:21;;;;;;;4.28;1.60;;;;;;;;;;5095025;28;20574;-59
2022/07/04 12:04:49;;;;;;;1.92;1.73;;;;;;;;;;5094879;28;20242;-60
2022/07/04 12:07:17;;;;;;;1.90;1.80;;;;;;;;;;5095434;28;20533;-59
2022/07/04 12:09:46;;;;;;;1.80;1.70;;;;;;;;;;5095911;28;20289;-59
2022/07/04 12:12:13;;;;;;;2.22;1.70;;;;;;;;;;5094980;28;20258;-60
2022/07/04 12:14:57;;;;;;;2.03;1.70;;;;;;;;;;5095381;28;20200;-59
2022/07/04 12:17:31;;;;;;;2.00;1.90;;;;;;;;;;5094702;28;20273;-59
2022/07/04 12:19:59;;;;;;;1.80;1.70;;;;;;;;;;5095128;28;20195;-60
2022/07/04 12:22:31;;;;;;;2.08;1.98;;;;;;;;;;5094882;28;20204;-59
2022/07/04 12:24:59;;;;;;;1.88;1.70;;;;;;;;;;5095891;28;20210;-59
2022/07/04 12:27:28;;;;;;;2.05;1.90;;;;;;;;;;5095846;28;20678;-60
2022/07/04 12:29:58;;;;;;;2.10;1.88;;;;;;;;;;5095201;28;20192;-60
2022/07/04 12:32:44;;;;;;;1.85;1.75;;;;;;;;;;5094485;28;20243;-59
2022/07/04 12:35:12;;;;;;;2.00;1.80;;;;;;;;;;5094841;28;20235;-59
2022/07/04 12:37:39;;;;;;;2.08;1.90;;;;;;;;;;5095429;28;20219;-60
2022/07/04 12:40:10;;;;;;;1.75;1.65;;;;;;;;;;5094082;28;20295;-60
2022/07/04 12:42:37;;;;;;;1.67;1.58;;;;;;;;;;5093700;28;20285;-60
2022/07/04 12:45:08;;;;;;;1.95;1.77;;;;;;;;;;5095251;28;20318;-60
2022/07/04 12:47:36;;;;;;;1.83;1.70;;;;;;;;;;5094889;28;20196;-60
2022/07/04 12:50:04;;;;;;;1.75;1.65;;;;;;;;;;5095770;28;20235;-59
2022/07/04 12:52:32;;;;;;;2.00;1.90;;;;;;;;;;5095316;28;20319;-60
2022/07/04 12:55:06;;;;;;;1.80;1.70;;;;;;;;;;5095041;28;20208;-60
2022/07/04 12:57:34;;;;;;;1.77;1.67;;;;;;;;;;5094620;28;20636;-59
2022/07/04 13:00:01;;;;;;;1.80;1.70;;;;;;;;;;5094440;28;20261;-60
2022/07/04 13:02:30;;;;;;;1.83;1.73;;;;;;;;;;5095147;28;20203;-62
2022/07/04 13:04:59;;;;;;;1.80;1.70;;;;;;;;;;5093919;28;20235;-61
2022/07/04 13:07:27;;;;;;;1.90;1.80;;;;;;;;;;5094046;28;20206;-60
2022/07/04 13:09:54;;;;;;;2.05;1.88;;;;;;;;;;5088796;28;20230;-60
2022/07/04 13:12:28;;;;;;;2.45;1.95;;;;;;;;;;5093599;28;20623;-61
2022/07/04 13:14:56;;;;;;;1.77;1.67;;;;;;;;;;5094333;28;20764;-60
2022/07/04 13:17:24;;;;;;;2.00;1.70;;;;;;;;;;5094551;28;20905;-60
2022/07/04 13:19:53;;;;;;;1.90;1.80;;;;;;;;;;5093744;28;20238;-61
2022/07/04 13:22:21;;;;;;;1.95;1.85;;;;;;;;;;5093940;28;20498;-60
2022/07/04 13:24:49;;;;;;;1.80;1.70;;;;;;;;;;5093881;28;20492;-60
2022/07/04 13:27:17;;;;;;;1.75;1.65;;;;;;;;;;5094403;28;20204;-60
2022/07/04 13:29:45;;;;;;;1.95;1.85;;;;;;;;;;5093976;28;20204;-59
2022/07/04 13:32:13;;;;;;;1.88;1.77;;;;;;;;;;5094236;28;20207;-60
2022/07/04 13:34:40;;;;;;;2.00;1.90;;;;;;;;;;5093549;28;20227;-59
2022/07/04 13:37:09;;;;;;;2.17;1.67;;;;;;;;;;5093211;28;20234;-59
2022/07/04 13:39:37;;;;;;;1.98;1.88;;;;;;;;;;5093341;28;20312;-60
2022/07/04 13:42:04;;;;;;;1.70;1.60;;;;;;;;;;5094412;28;20252;-60
2022/07/04 13:44:32;;;;;;;1.80;1.70;;;;;;;;;;5094323;28;20765;-60
2022/07/04 13:46:59;;;;;;;1.77;1.67;;;;;;;;;;5094919;28;20242;-60
2022/07/04 13:49:27;;;;;;;2.03;1.83;;;;;;;;;;5094000;28;20234;-60
2022/07/04 13:51:55;;;;;;;1.95;1.80;;;;;;;;;;5092932;28;20228;-59
2022/07/04 13:54:24;;;;;;;1.85;1.75;;;;;;;;;;5093671;28;20215;-61
2022/07/04 13:56:51;;;;;;;1.85;1.75;;;;;;;;;;5092544;28;20227;-60
2022/07/04 13:59:19;;;;;;;1.80;1.70;;;;;;;;;;5092117;28;20265;-60
2022/07/04 14:01:47;;;;;;;2.22;2.03;;;;;;;;;;5093615;28;20278;-59
2022/07/04 14:04:14;;;;;;;1.83;1.70;;;;;;;;;;5093933;28;20238;-65
2022/07/04 14:06:42;;;;;;;1.80;1.70;;;;;;;;;;5093526;28;20199;-60
2022/07/04 14:09:09;;;;;;;2.00;1.80;;;;;;;;;;5093239;28;20801;-60
2022/07/04 14:11:38;;;;;;;1.70;1.60;;;;;;;;;;5093249;28;20251;-60
2022/07/04 14:14:06;;;;;;;1.98;1.88;;;;;;;;;;5092944;28;20238;-60
2022/07/04 14:16:33;;;;;;;1.80;1.70;;;;;;;;;;5091943;28;20265;-59
2022/07/04 14:19:01;;;;;;;1.83;1.70;;;;;;;;;;5095484;28;20277;-59
2022/07/04 14:21:29;;;;;;;1.88;1.70;;;;;;;;;;5096444;28;20203;-60
2022/07/04 14:23:56;;;;;;;2.00;1.90;;;;;;;;;;5096440;28;20265;-60
2022/07/04 14:26:24;;;;;;;1.88;1.77;;;;;;;;;;5096823;28;20239;-60
2022/07/04 14:28:53;;;;;;;1.77;1.50;;;;;;;;;;5096371;28;20199;-60
2022/07/04 14:31:21;;;;;;;1.80;1.70;;;;;;;;;;5096466;28;20196;-60
2022/07/04 14:33:48;;;;;;;1.92;1.83;;;;;;;;;;5097744;28;20204;-59
2022/07/04 14:36:16;;;;;;;1.88;1.77;;;;;;;;;;5097124;28;20239;-59
2022/07/04 14:38:43;;;;;;;2.22;1.75;;;;;;;;;;5096818;28;20231;-59
2022/07/04 14:41:11;;;;;;;1.80;1.70;;;;;;;;;;5096642;28;20204;-60
2022/07/04 14:43:40;;;;;;;1.70;1.60;;;;;;;;;;5096915;28;20199;-60
2022/07/04 14:46:09;;;;;;;2.88;1.77;;;;;;;;;;5096713;28;20265;-61
2022/07/04 14:48:37;;;;;;;1.80;1.70;;;;;;;;;;5096613;28;20195;-61
2022/07/04 14:51:04;;;;;;;1.92;1.65;;;;;;;;;;5095851;28;20300;-61
2022/07/04 14:53:32;;;;;;;3.10;1.60;;;;;;;;;;5094655;28;20242;-61
2022/07/04 14:56:00;;;;;;;1.70;1.60;;;;;;;;;;5095295;28;20260;-61
2022/07/04 14:58:27;;;;;;;1.80;1.63;;;;;;;;;;5096937;28;20234;-61
2022/07/04 15:00:55;;;;;;;2.00;1.42;;;;;;;;;;5097157;28;20203;-61
2022/07/04 15:03:24;;;;;;;1.80;1.70;;;;;;;;;;5097419;28;20204;-59
2022/07/04 15:05:52;;;;;;;1.67;1.58;;;;;;;;;;5096803;28;20265;-59
2022/07/04 15:08:20;;;;;;;70.40;65.78;;;;;;;;;;5096471;28;20417;-60
2022/07/04 15:10:47;;;;;;;189.48;176.48;;;;;;;;;;5095932;28;20304;-60